Time;durP1;ratioP1;P1;durP2;ratioP2;P2;SDS_P1;SDS_P2;PMS_P1;PMS_P2;Temp;Humidity;BMP_temperature;BMP_pressure;BME280_temperature;BME280_humidity;BME280_pressure;Samples;Min_cycle;Max_cycle;Signal;HPM_P1;HPM_P2
2021/08/16 00:01:17;;;;;;;5.85;2.90;;;;;;;;;;5045323;28;20430;-86
2021/08/16 00:03:43;;;;;;;7.50;2.50;;;;;;;;;;5046339;28;20192;-86
2021/08/16 00:06:09;;;;;;;7.33;2.43;;;;;;;;;;5046341;28;20917;-85
2021/08/16 00:08:35;;;;;;;10.90;2.38;;;;;;;;;;5047315;28;20420;-84
2021/08/16 00:11:03;;;;;;;7.00;4.07;;;;;;;;;;5030522;28;20176;-85
2021/08/16 00:13:30;;;;;;;5.95;2.58;;;;;;;;;;5035751;28;20507;-85
2021/08/16 00:15:56;;;;;;;6.03;2.60;;;;;;;;;;5043536;28;20191;-85
2021/08/16 00:18:22;;;;;;;6.40;2.10;;;;;;;;;;5046330;28;20207;-85
2021/08/16 00:20:48;;;;;;;5.78;2.40;;;;;;;;;;5044760;28;20473;-85
2021/08/16 00:23:14;;;;;;;3.23;2.10;;;;;;;;;;5028869;28;20234;-85
2021/08/16 00:25:40;;;;;;;6.40;2.95;;;;;;;;;;5036542;28;20488;-86
2021/08/16 00:28:06;;;;;;;7.40;2.90;;;;;;;;;;5043408;28;20194;-84
2021/08/16 00:30:32;;;;;;;4.47;2.30;;;;;;;;;;5046542;28;20441;-85
2021/08/16 00:32:58;;;;;;;5.50;2.10;;;;;;;;;;5047220;28;20436;-85
2021/08/16 00:35:24;;;;;;;5.43;2.70;;;;;;;;;;5045778;28;20445;-85
2021/08/16 00:37:50;;;;;;;6.47;2.50;;;;;;;;;;5043114;28;20182;-84
2021/08/16 00:40:16;;;;;;;2.78;2.45;;;;;;;;;;5046993;28;20464;-85
2021/08/16 00:42:43;;;;;;;2.53;1.80;;;;;;;;;;5042544;28;20551;-84
2021/08/16 00:45:10;;;;;;;5.22;2.30;;;;;;;;;;5036738;28;20176;-85
2021/08/16 00:47:38;;;;;;;6.70;2.70;;;;;;;;;;5046462;28;20182;-84
2021/08/16 00:50:04;;;;;;;6.63;2.20;;;;;;;;;;5029132;28;20294;-85
2021/08/16 00:52:31;;;;;;;3.67;1.92;;;;;;;;;;5037301;28;20665;-85
2021/08/16 00:54:57;;;;;;;4.88;2.72;;;;;;;;;;5042349;28;20572;-85
2021/08/16 00:57:23;;;;;;;5.38;2.47;;;;;;;;;;5042471;28;20178;-84
2021/08/16 00:59:50;;;;;;;4.55;2.00;;;;;;;;;;5032122;28;20209;-84
2021/08/16 01:02:16;;;;;;;4.70;2.30;;;;;;;;;;5045671;28;20171;-85
2021/08/16 01:04:42;;;;;;;7.70;2.37;;;;;;;;;;5046995;28;20176;-85
2021/08/16 01:07:08;;;;;;;3.10;1.53;;;;;;;;;;5044966;28;20924;-86
2021/08/16 01:09:34;;;;;;;9.93;2.77;;;;;;;;;;5044682;28;20449;-84
2021/08/16 01:12:00;;;;;;;5.90;1.88;;;;;;;;;;5044707;28;20465;-85
2021/08/16 01:14:26;;;;;;;4.78;2.25;;;;;;;;;;5027944;28;20190;-85
2021/08/16 01:16:52;;;;;;;4.23;2.03;;;;;;;;;;5047229;28;20186;-85
2021/08/16 01:19:21;;;;;;;6.10;2.60;;;;;;;;;;5037341;28;20488;-85
2021/08/16 01:21:48;;;;;;;8.82;1.83;;;;;;;;;;5033417;28;20437;-85
2021/08/16 01:24:14;;;;;;;2.80;2.05;;;;;;;;;;5029100;28;20197;-85
2021/08/16 01:26:40;;;;;;;6.63;3.22;;;;;;;;;;5048113;28;20182;-85
2021/08/16 01:29:14;;;;;;;4.13;2.15;;;;;;;;;;5045335;28;20225;-84
2021/08/16 01:31:41;;;;;;;6.97;2.40;;;;;;;;;;5058507;28;20188;-85
2021/08/16 01:34:07;;;;;;;6.20;2.40;;;;;;;;;;5046253;28;20191;-85
2021/08/16 01:36:33;;;;;;;8.43;2.73;;;;;;;;;;5044523;28;20190;-85
2021/08/16 01:38:59;;;;;;;8.13;2.60;;;;;;;;;;5044296;28;20526;-86
2021/08/16 01:41:25;;;;;;;6.80;2.00;;;;;;;;;;5044716;28;20413;-85
2021/08/16 01:43:50;;;;;;;7.07;2.20;;;;;;;;;;5040273;28;20423;-85
2021/08/16 01:46:16;;;;;;;6.83;2.70;;;;;;;;;;5043288;28;20443;-85
2021/08/16 01:48:42;;;;;;;4.77;2.07;;;;;;;;;;5043519;28;20519;-84
2021/08/16 01:51:08;;;;;;;4.53;2.17;;;;;;;;;;5046903;28;20523;-85
2021/08/16 01:53:34;;;;;;;7.60;2.53;;;;;;;;;;5043677;28;20528;-85
2021/08/16 01:56:00;;;;;;;3.97;1.97;;;;;;;;;;5030507;28;20489;-86
2021/08/16 01:58:26;;;;;;;5.10;2.30;;;;;;;;;;5044170;28;20809;-85
2021/08/16 02:00:52;;;;;;;3.87;2.90;;;;;;;;;;5046374;28;20447;-85
2021/08/16 02:03:18;;;;;;;4.53;2.17;;;;;;;;;;5044627;28;20963;-85
2021/08/16 02:05:44;;;;;;;7.35;1.77;;;;;;;;;;5046657;28;20855;-85
2021/08/16 02:08:10;;;;;;;5.80;2.30;;;;;;;;;;5028232;28;20442;-85
2021/08/16 02:10:36;;;;;;;7.82;2.70;;;;;;;;;;5033781;28;20876;-85
2021/08/16 02:13:03;;;;;;;4.85;2.00;;;;;;;;;;5034619;28;20505;-85
2021/08/16 02:15:29;;;;;;;5.68;2.50;;;;;;;;;;5034435;28;20181;-84
2021/08/16 02:17:55;;;;;;;5.28;2.80;;;;;;;;;;5045145;28;20177;-85
2021/08/16 02:20:21;;;;;;;5.07;2.20;;;;;;;;;;5027665;28;20305;-85
2021/08/16 02:22:47;;;;;;;7.85;2.13;;;;;;;;;;5046392;28;20237;-85
2021/08/16 02:25:13;;;;;;;8.07;2.70;;;;;;;;;;5035703;28;20420;-85
2021/08/16 02:27:46;;;;;;;5.10;2.53;;;;;;;;;;5034193;28;20179;-84
2021/08/16 02:30:13;;;;;;;4.28;1.83;;;;;;;;;;5033206;28;20186;-86
2021/08/16 02:32:39;;;;;;;3.08;1.85;;;;;;;;;;5043369;28;20663;-86
2021/08/16 02:35:06;;;;;;;4.18;2.70;;;;;;;;;;5028024;28;20621;-84
2021/08/16 02:37:32;;;;;;;6.47;3.08;;;;;;;;;;5042876;28;20182;-84
2021/08/16 02:39:58;;;;;;;5.53;2.55;;;;;;;;;;5044169;28;20244;-85
2021/08/16 02:42:24;;;;;;;5.03;1.90;;;;;;;;;;5044776;28;20175;-85
2021/08/16 02:44:50;;;;;;;7.88;2.03;;;;;;;;;;5039701;28;20453;-85
2021/08/16 02:47:16;;;;;;;4.87;1.87;;;;;;;;;;5040550;28;20178;-85
2021/08/16 02:49:42;;;;;;;7.65;2.90;;;;;;;;;;5031505;28;20422;-84
2021/08/16 02:52:08;;;;;;;4.80;2.35;;;;;;;;;;5038219;28;20227;-85
2021/08/16 02:54:34;;;;;;;4.47;2.25;;;;;;;;;;5040781;28;20199;-85
2021/08/16 02:57:00;;;;;;;4.82;2.35;;;;;;;;;;5031539;28;20728;-85
2021/08/16 02:59:26;;;;;;;6.80;2.07;;;;;;;;;;5025988;28;20269;-85
2021/08/16 03:01:52;;;;;;;5.57;2.20;;;;;;;;;;5031261;28;20433;-85
2021/08/16 03:04:18;;;;;;;6.63;2.40;;;;;;;;;;5042726;28;20191;-85
2021/08/16 03:06:44;;;;;;;5.50;2.43;;;;;;;;;;5044116;28;20406;-85
2021/08/16 03:09:10;;;;;;;5.23;1.80;;;;;;;;;;5044381;28;20418;-85
2021/08/16 03:11:36;;;;;;;8.00;2.20;;;;;;;;;;5043159;28;20931;-85
2021/08/16 03:14:02;;;;;;;6.10;2.17;;;;;;;;;;5028317;28;20183;-85
2021/08/16 03:16:28;;;;;;;4.50;2.40;;;;;;;;;;5033196;28;20448;-85
2021/08/16 03:18:54;;;;;;;5.03;2.13;;;;;;;;;;5037402;28;20254;-84
2021/08/16 03:21:20;;;;;;;5.53;2.40;;;;;;;;;;5045444;28;20432;-85
2021/08/16 03:23:46;;;;;;;5.27;2.30;;;;;;;;;;5045665;28;20428;-84
2021/08/16 03:26:12;;;;;;;3.90;1.58;;;;;;;;;;5043951;28;20409;-85
2021/08/16 03:28:38;;;;;;;6.03;2.67;;;;;;;;;;5045739;28;20180;-84
2021/08/16 03:31:04;;;;;;;8.13;3.13;;;;;;;;;;5045243;28;20437;-85
2021/08/16 03:33:30;;;;;;;7.53;2.60;;;;;;;;;;5045217;28;20494;-84
2021/08/16 03:35:56;;;;;;;7.43;2.80;;;;;;;;;;5043296;28;20185;-85
2021/08/16 03:38:22;;;;;;;5.53;2.27;;;;;;;;;;5042456;28;20188;-86
2021/08/16 03:40:48;;;;;;;7.63;2.30;;;;;;;;;;5045719;28;20712;-86
2021/08/16 03:43:14;;;;;;;4.78;1.90;;;;;;;;;;5042076;28;20644;-85
2021/08/16 03:45:41;;;;;;;6.50;2.87;;;;;;;;;;5043523;28;20463;-86
2021/08/16 03:48:07;;;;;;;6.22;2.65;;;;;;;;;;5044955;28;20440;-85
2021/08/16 03:50:33;;;;;;;4.50;2.00;;;;;;;;;;5043954;28;20190;-85
2021/08/16 03:52:59;;;;;;;10.50;2.65;;;;;;;;;;5045291;28;20178;-84
2021/08/16 03:55:25;;;;;;;4.53;2.42;;;;;;;;;;5044600;28;20187;-84
2021/08/16 03:57:51;;;;;;;5.63;2.20;;;;;;;;;;5038050;28;20226;-85
2021/08/16 04:00:17;;;;;;;5.70;1.73;;;;;;;;;;5032837;28;20205;-83
2021/08/16 04:02:45;;;;;;;4.03;2.25;;;;;;;;;;5044244;28;20428;-85
2021/08/16 04:05:11;;;;;;;4.22;1.77;;;;;;;;;;5027644;28;20195;-83
2021/08/16 04:07:38;;;;;;;4.60;2.10;;;;;;;;;;5056872;28;20165;-86
2021/08/16 04:10:04;;;;;;;8.52;2.45;;;;;;;;;;5043796;28;20199;-85
2021/08/16 04:12:30;;;;;;;5.95;2.03;;;;;;;;;;5041652;28;20217;-84
2021/08/16 04:14:56;;;;;;;4.93;2.20;;;;;;;;;;5029403;28;20190;-84
2021/08/16 04:17:22;;;;;;;5.80;3.50;;;;;;;;;;5025304;28;20414;-84
2021/08/16 04:19:48;;;;;;;5.10;2.40;;;;;;;;;;5030606;28;20472;-86
2021/08/16 04:22:14;;;;;;;3.73;1.60;;;;;;;;;;5039253;28;20472;-85
2021/08/16 04:24:40;;;;;;;5.30;2.53;;;;;;;;;;5044661;28;20471;-85
2021/08/16 04:27:06;;;;;;;5.53;2.70;;;;;;;;;;5046221;28;20468;-85
2021/08/16 04:29:32;;;;;;;4.33;2.20;;;;;;;;;;5029850;28;20524;-85
2021/08/16 04:31:57;;;;;;;4.38;1.90;;;;;;;;;;5047039;28;20443;-85
2021/08/16 04:34:24;;;;;;;5.83;2.70;;;;;;;;;;5045863;28;20281;-85
2021/08/16 04:36:50;;;;;;;4.43;1.92;;;;;;;;;;5045887;28;20464;-85
2021/08/16 04:39:16;;;;;;;4.85;1.65;;;;;;;;;;5046507;28;20340;-85
2021/08/16 04:41:42;;;;;;;9.70;2.30;;;;;;;;;;5032216;28;20178;-85
2021/08/16 04:44:08;;;;;;;2.78;1.65;;;;;;;;;;5030573;28;20457;-85
2021/08/16 04:46:34;;;;;;;4.37;2.03;;;;;;;;;;5046696;28;20313;-85
2021/08/16 04:49:00;;;;;;;5.00;2.13;;;;;;;;;;5048014;28;20516;-85
2021/08/16 04:51:26;;;;;;;4.60;1.80;;;;;;;;;;5045914;28;20393;-84
2021/08/16 04:53:52;;;;;;;4.90;1.85;;;;;;;;;;5046945;28;20483;-85
2021/08/16 04:56:18;;;;;;;4.60;2.20;;;;;;;;;;5030012;28;20174;-85
2021/08/16 04:58:44;;;;;;;2.85;2.28;;;;;;;;;;5034559;28;20453;-85
2021/08/16 05:01:10;;;;;;;5.87;2.10;;;;;;;;;;5044148;28;20568;-85
2021/08/16 05:03:36;;;;;;;5.30;2.20;;;;;;;;;;5043512;28;20419;-86
2021/08/16 05:06:07;;;;;;;4.50;1.60;;;;;;;;;;5031917;28;20194;-85
2021/08/16 05:08:35;;;;;;;4.32;1.98;;;;;;;;;;5028787;28;20774;-85
2021/08/16 05:11:01;;;;;;;5.88;1.45;;;;;;;;;;5031292;28;20202;-85
2021/08/16 05:13:27;;;;;;;2.80;1.60;;;;;;;;;;5045976;28;20193;-86
2021/08/16 05:15:53;;;;;;;4.70;1.80;;;;;;;;;;5041759;28;20174;-84
2021/08/16 05:18:19;;;;;;;5.20;1.53;;;;;;;;;;5047275;28;20257;-84
2021/08/16 05:20:45;;;;;;;4.22;1.88;;;;;;;;;;5045662;28;20473;-83
2021/08/16 05:23:11;;;;;;;2.03;1.40;;;;;;;;;;5045897;28;20177;-85
2021/08/16 05:25:37;;;;;;;4.13;1.53;;;;;;;;;;5046783;28;20605;-85
2021/08/16 05:28:04;;;;;;;3.80;1.55;;;;;;;;;;5039147;28;20437;-85
2021/08/16 05:30:30;;;;;;;6.25;1.90;;;;;;;;;;5034977;28;20186;-84
2021/08/16 05:32:56;;;;;;;1.75;1.55;;;;;;;;;;5040298;28;20250;-84
2021/08/16 05:35:22;;;;;;;3.20;1.90;;;;;;;;;;5043818;28;20174;-85
2021/08/16 05:37:48;;;;;;;6.05;1.50;;;;;;;;;;5032304;28;20425;-85
2021/08/16 05:40:15;;;;;;;3.70;1.77;;;;;;;;;;5043842;28;20197;-86
2021/08/16 05:42:41;;;;;;;5.10;1.30;;;;;;;;;;5044929;28;20178;-82
2021/08/16 05:45:07;;;;;;;4.33;1.37;;;;;;;;;;5046627;28;20247;-84
2021/08/16 05:47:33;;;;;;;2.15;1.60;;;;;;;;;;5044413;28;20519;-84
2021/08/16 05:50:00;;;;;;;6.65;1.80;;;;;;;;;;5029445;28;20186;-85
2021/08/16 05:52:26;;;;;;;3.08;1.55;;;;;;;;;;5034954;28;20186;-85
2021/08/16 05:54:53;;;;;;;6.32;2.00;;;;;;;;;;5038228;28;20194;-82
2021/08/16 05:57:19;;;;;;;10.93;1.75;;;;;;;;;;5046234;28;20201;-85
2021/08/16 05:59:45;;;;;;;4.70;1.43;;;;;;;;;;5043192;28;20242;-85
2021/08/16 06:02:11;;;;;;;5.25;1.55;;;;;;;;;;5045705;28;20438;-84
2021/08/16 06:04:36;;;;;;;4.10;1.63;;;;;;;;;;5047205;28;20210;-84
2021/08/16 06:07:03;;;;;;;3.80;1.40;;;;;;;;;;5046528;28;20823;-86
2021/08/16 06:09:29;;;;;;;1.45;1.20;;;;;;;;;;5043208;28;20519;-85
2021/08/16 06:11:55;;;;;;;3.35;1.83;;;;;;;;;;5031068;28;20731;-85
2021/08/16 06:14:21;;;;;;;2.75;1.85;;;;;;;;;;5042574;28;20209;-84
2021/08/16 06:16:47;;;;;;;1.90;1.27;;;;;;;;;;5046778;28;20238;-85
2021/08/16 06:19:14;;;;;;;3.60;1.40;;;;;;;;;;5040426;28;20535;-85
2021/08/16 06:21:42;;;;;;;2.75;1.20;;;;;;;;;;5046421;28;20257;-84
2021/08/16 06:24:09;;;;;;;5.55;1.70;;;;;;;;;;5046373;28;20178;-84
2021/08/16 06:26:35;;;;;;;5.28;1.77;;;;;;;;;;5045300;28;20180;-84
2021/08/16 06:29:01;;;;;;;2.90;1.50;;;;;;;;;;5029855;28;20218;-85
2021/08/16 06:31:28;;;;;;;2.10;1.30;;;;;;;;;;5034917;28;20187;-85
2021/08/16 06:33:54;;;;;;;4.40;1.30;;;;;;;;;;5039251;28;20440;-84
2021/08/16 06:36:20;;;;;;;1.70;1.03;;;;;;;;;;5046028;28;20185;-85
2021/08/16 06:38:47;;;;;;;2.88;1.40;;;;;;;;;;5046133;28;20467;-84
2021/08/16 06:41:15;;;;;;;2.05;1.30;;;;;;;;;;5044405;28;20180;-86
2021/08/16 06:43:42;;;;;;;1.17;1.08;;;;;;;;;;5045691;28;20170;-85
2021/08/16 06:46:08;;;;;;;1.40;1.15;;;;;;;;;;5043164;28;20185;-85
2021/08/16 06:48:34;;;;;;;5.30;1.65;;;;;;;;;;5039903;28;20179;-84
2021/08/16 06:51:00;;;;;;;1.88;1.20;;;;;;;;;;5045468;28;20185;-84
2021/08/16 06:53:26;;;;;;;4.57;1.92;;;;;;;;;;5044577;28;20231;-84
2021/08/16 06:55:53;;;;;;;1.87;1.20;;;;;;;;;;5029311;28;20178;-85
2021/08/16 06:58:19;;;;;;;2.15;1.30;;;;;;;;;;5031034;28;20429;-85
2021/08/16 07:00:45;;;;;;;3.55;1.30;;;;;;;;;;5038745;28;20637;-85
2021/08/16 07:03:12;;;;;;;4.05;1.20;;;;;;;;;;5045423;28;20269;-84
2021/08/16 07:05:42;;;;;;;4.85;1.60;;;;;;;;;;5044455;28;20209;-84
2021/08/16 07:08:08;;;;;;;3.92;1.25;;;;;;;;;;5042683;28;20178;-83
2021/08/16 07:10:34;;;;;;;3.30;0.83;;;;;;;;;;5033088;28;20604;-84
2021/08/16 07:13:00;;;;;;;3.67;1.30;;;;;;;;;;5038894;28;20444;-85
2021/08/16 07:15:26;;;;;;;1.73;1.03;;;;;;;;;;5041532;28;20451;-84
2021/08/16 07:17:52;;;;;;;2.80;1.38;;;;;;;;;;5031677;28;20445;-86
2021/08/16 07:20:18;;;;;;;3.00;1.40;;;;;;;;;;5027470;28;20254;-84
2021/08/16 07:22:44;;;;;;;1.75;1.35;;;;;;;;;;5033253;28;20416;-86
2021/08/16 07:25:10;;;;;;;1.63;1.53;;;;;;;;;;5038177;28;20185;-85
2021/08/16 07:27:36;;;;;;;5.90;2.20;;;;;;;;;;5044991;28;20522;-84
2021/08/16 07:30:03;;;;;;;8.83;4.03;;;;;;;;;;5038617;28;20190;-84
2021/08/16 07:32:29;;;;;;;5.90;1.50;;;;;;;;;;5025499;28;20426;-85
2021/08/16 07:34:55;;;;;;;3.22;1.38;;;;;;;;;;5043916;28;20180;-85
2021/08/16 07:37:21;;;;;;;6.17;1.50;;;;;;;;;;5035129;28;20210;-85
2021/08/16 07:39:47;;;;;;;3.67;2.13;;;;;;;;;;5032564;28;20499;-85
2021/08/16 07:42:13;;;;;;;5.63;1.83;;;;;;;;;;5031609;28;20231;-86
2021/08/16 07:44:39;;;;;;;1.60;1.13;;;;;;;;;;5025833;28;20283;-85
2021/08/16 07:47:05;;;;;;;2.60;1.20;;;;;;;;;;5027067;28;20449;-85
2021/08/16 07:49:32;;;;;;;1.30;1.20;;;;;;;;;;5043716;28;20436;-84
2021/08/16 07:51:58;;;;;;;1.63;1.52;;;;;;;;;;5037117;28;20187;-85
2021/08/16 07:54:24;;;;;;;2.95;1.20;;;;;;;;;;5035145;28;20237;-84
2021/08/16 07:56:51;;;;;;;2.97;1.65;;;;;;;;;;5041230;28;20197;-85
2021/08/16 07:59:17;;;;;;;1.33;1.20;;;;;;;;;;5026969;28;20216;-84
2021/08/16 08:01:44;;;;;;;3.00;1.27;;;;;;;;;;5048573;28;20186;-85
2021/08/16 08:04:10;;;;;;;1.25;1.05;;;;;;;;;;5048457;28;20182;-84
2021/08/16 08:06:36;;;;;;;1.93;1.00;;;;;;;;;;5047708;28;20189;-86
2021/08/16 08:09:02;;;;;;;1.60;1.30;;;;;;;;;;5048392;28;20424;-85
2021/08/16 08:11:28;;;;;;;2.30;1.40;;;;;;;;;;5046556;28;20513;-85
2021/08/16 08:13:54;;;;;;;2.40;1.33;;;;;;;;;;5047532;28;20895;-85
2021/08/16 08:16:20;;;;;;;1.42;1.33;;;;;;;;;;5037963;28;20428;-84
2021/08/16 08:18:46;;;;;;;1.53;1.00;;;;;;;;;;5041364;28;20678;-85
2021/08/16 08:21:12;;;;;;;2.25;1.33;;;;;;;;;;5046466;28;20533;-84
2021/08/16 08:23:38;;;;;;;1.60;1.23;;;;;;;;;;5029853;28;20186;-83
2021/08/16 08:26:04;;;;;;;3.78;1.77;;;;;;;;;;5031850;28;20416;-84
2021/08/16 08:28:30;;;;;;;0.95;0.90;;;;;;;;;;5044983;28;20261;-84
2021/08/16 08:30:56;;;;;;;1.60;1.20;;;;;;;;;;5047439;28;20201;-85
2021/08/16 08:33:23;;;;;;;4.00;1.20;;;;;;;;;;5045524;28;20183;-84
2021/08/16 08:35:50;;;;;;;2.38;1.40;;;;;;;;;;5045929;28;20535;-85
2021/08/16 08:38:16;;;;;;;1.40;0.98;;;;;;;;;;5029578;28;20169;-84
2021/08/16 08:40:43;;;;;;;2.05;1.00;;;;;;;;;;5035332;28;20463;-84
2021/08/16 08:43:11;;;;;;;2.63;1.55;;;;;;;;;;5034769;28;20196;-83
2021/08/16 08:45:38;;;;;;;1.35;0.90;;;;;;;;;;5034849;28;20206;-86
2021/08/16 08:48:04;;;;;;;2.92;1.23;;;;;;;;;;5034747;28;20251;-85
2021/08/16 08:50:30;;;;;;;1.27;0.90;;;;;;;;;;5044973;28;20184;-84
2021/08/16 08:53:00;;;;;;;1.00;0.90;;;;;;;;;;5047404;28;20176;-84
2021/08/16 08:55:26;;;;;;;1.67;1.00;;;;;;;;;;5042938;28;20448;-85
2021/08/16 08:57:52;;;;;;;0.98;0.88;;;;;;;;;;5048545;28;20214;-84
2021/08/16 09:00:19;;;;;;;1.20;1.10;;;;;;;;;;5047730;28;20703;-85
2021/08/16 09:03:01;;;;;;;0.90;0.80;;;;;;;;;;5045498;28;20184;-85
2021/08/16 09:05:27;;;;;;;1.00;0.90;;;;;;;;;;5030100;28;20222;-85
2021/08/16 09:08:00;;;;;;;1.48;0.98;;;;;;;;;;5030747;28;20549;-85
2021/08/16 09:10:27;;;;;;;1.50;1.00;;;;;;;;;;5044676;28;20189;-83
2021/08/16 09:13:00;;;;;;;1.95;1.10;;;;;;;;;;5047710;28;20659;-85
2021/08/16 09:15:29;;;;;;;2.50;1.58;;;;;;;;;;5044668;28;20187;-84
2021/08/16 09:17:55;;;;;;;1.33;1.15;;;;;;;;;;5046521;28;20232;-85
2021/08/16 09:20:27;;;;;;;1.42;1.33;;;;;;;;;;5026916;28;20300;-83
2021/08/16 09:23:04;;;;;;;2.13;1.40;;;;;;;;;;5029925;28;20203;-84
2021/08/16 09:25:34;;;;;;;3.28;1.25;;;;;;;;;;5046199;28;20348;-84
2021/08/16 09:28:00;;;;;;;3.00;1.17;;;;;;;;;;5039845;28;20295;-85
2021/08/16 09:30:32;;;;;;;1.92;1.60;;;;;;;;;;5034647;28;20185;-85
2021/08/16 09:32:58;;;;;;;2.03;1.80;;;;;;;;;;5033784;28;20186;-85
2021/08/16 09:35:24;;;;;;;1.40;1.30;;;;;;;;;;5027700;28;20191;-84
2021/08/16 09:37:56;;;;;;;2.05;1.77;;;;;;;;;;5047010;28;20222;-85
2021/08/16 09:40:22;;;;;;;1.77;1.67;;;;;;;;;;5047655;28;20199;-85
2021/08/16 09:42:49;;;;;;;2.05;1.95;;;;;;;;;;5044592;28;20183;-85
2021/08/16 09:45:29;;;;;;;5.00;2.15;;;;;;;;;;5044651;28;20247;-83
2021/08/16 09:47:58;;;;;;;2.70;2.50;;;;;;;;;;5047136;28;20188;-84
2021/08/16 09:50:36;;;;;;;2.30;2.10;;;;;;;;;;5044497;28;20241;-86
2021/08/16 09:53:07;;;;;;;2.25;1.63;;;;;;;;;;5044420;28;20174;-85
2021/08/16 09:55:33;;;;;;;1.10;1.00;;;;;;;;;;5046893;28;20182;-86
2021/08/16 09:58:01;;;;;;;2.58;1.45;;;;;;;;;;5043421;28;20198;-83
2021/08/16 10:00:27;;;;;;;1.90;1.25;;;;;;;;;;5046637;28;20195;-89
2021/08/16 10:02:53;;;;;;;2.50;1.30;;;;;;;;;;5046702;28;20223;-86
2021/08/16 10:05:19;;;;;;;1.30;1.20;;;;;;;;;;5043517;28;20237;-88
2021/08/16 10:07:45;;;;;;;1.63;1.43;;;;;;;;;;5040627;28;20206;-87
2021/08/16 10:10:11;;;;;;;1.13;1.02;;;;;;;;;;5036310;28;20445;-87
2021/08/16 10:12:37;;;;;;;1.45;1.30;;;;;;;;;;5036589;28;20182;-88
2021/08/16 10:15:04;;;;;;;2.80;1.45;;;;;;;;;;5044518;28;20194;-86
2021/08/16 10:17:38;;;;;;;2.67;1.35;;;;;;;;;;5044147;28;20244;-87
2021/08/16 10:20:05;;;;;;;1.55;1.30;;;;;;;;;;5028469;28;20365;-87
2021/08/16 10:22:40;;;;;;;1.67;1.55;;;;;;;;;;5043012;28;20185;-85
2021/08/16 10:25:17;;;;;;;2.42;1.48;;;;;;;;;;5039960;28;20181;-85
2021/08/16 10:27:44;;;;;;;3.22;2.05;;;;;;;;;;5033599;28;20210;-85
2021/08/16 10:30:14;;;;;;;3.28;2.00;;;;;;;;;;5034350;28;20182;-86
2021/08/16 10:32:40;;;;;;;1.95;1.52;;;;;;;;;;5043490;28;20199;-87
2021/08/16 10:35:06;;;;;;;3.03;1.60;;;;;;;;;;5043020;28;20174;-86
2021/08/16 10:37:36;;;;;;;1.88;1.75;;;;;;;;;;5034342;28;20180;-85
2021/08/16 10:40:12;;;;;;;2.55;2.00;;;;;;;;;;5041000;28;20361;-88
2021/08/16 10:42:38;;;;;;;3.88;1.77;;;;;;;;;;5045147;28;20183;-86
2021/08/16 10:45:07;;;;;;;4.07;2.13;;;;;;;;;;5039486;28;20187;-87
2021/08/16 10:47:34;;;;;;;2.55;2.30;;;;;;;;;;5042885;28;20433;-86
2021/08/16 10:50:04;;;;;;;3.15;2.40;;;;;;;;;;5043891;28;20181;-83
2021/08/16 10:52:30;;;;;;;3.05;2.50;;;;;;;;;;5046799;28;20258;-87
2021/08/16 10:55:06;;;;;;;3.85;2.33;;;;;;;;;;5039305;28;20199;-86
2021/08/16 10:57:34;;;;;;;2.65;2.20;;;;;;;;;;5034600;28;20186;-86
2021/08/16 11:00:00;;;;;;;2.67;2.42;;;;;;;;;;5042665;28;20269;-85
2021/08/16 11:02:26;;;;;;;5.03;3.05;;;;;;;;;;5027824;28;20168;-86
2021/08/16 11:04:52;;;;;;;5.17;3.30;;;;;;;;;;5056663;28;20178;-85
2021/08/16 11:07:23;;;;;;;3.83;2.95;;;;;;;;;;5043285;28;20462;-86
2021/08/16 11:09:56;;;;;;;5.35;3.50;;;;;;;;;;5038965;28;20216;-86
2021/08/16 11:12:31;;;;;;;6.63;3.70;;;;;;;;;;5033240;28;20232;-87
2021/08/16 11:14:57;;;;;;;3.80;3.25;;;;;;;;;;5044457;28;20214;-86
2021/08/16 11:17:27;;;;;;;3.72;2.92;;;;;;;;;;5042673;28;20181;-85
2021/08/16 11:19:57;;;;;;;5.50;3.53;;;;;;;;;;5039901;28;20235;-85
2021/08/16 11:22:23;;;;;;;5.30;4.05;;;;;;;;;;5044424;28;20214;-85
2021/08/16 11:24:49;;;;;;;5.22;3.92;;;;;;;;;;5039234;28;20193;-87
2021/08/16 11:27:22;;;;;;;3.88;3.47;;;;;;;;;;5033283;28;20180;-86
2021/08/16 11:29:56;;;;;;;5.50;3.53;;;;;;;;;;5042285;28;20529;-87
2021/08/16 11:32:25;;;;;;;7.00;3.90;;;;;;;;;;5039259;28;20401;-86
2021/08/16 11:34:55;;;;;;;4.20;3.80;;;;;;;;;;5032970;28;20182;-87
2021/08/16 11:37:22;;;;;;;6.50;5.20;;;;;;;;;;5036180;28;20184;-86
2021/08/16 11:39:49;;;;;;;5.82;4.70;;;;;;;;;;5036069;28;20210;-85
2021/08/16 11:42:16;;;;;;;6.43;4.75;;;;;;;;;;5037115;28;20187;-84
2021/08/16 11:44:42;;;;;;;8.88;5.30;;;;;;;;;;5032078;28;20233;-87
2021/08/16 11:47:08;;;;;;;6.67;5.30;;;;;;;;;;5031209;28;20182;-87
2021/08/16 11:49:37;;;;;;;11.23;6.25;;;;;;;;;;5046745;28;20442;-86
2021/08/16 11:52:03;;;;;;;13.50;7.40;;;;;;;;;;5047685;28;20276;-87
2021/08/16 11:54:31;;;;;;;10.20;6.57;;;;;;;;;;5049211;28;20428;-86
2021/08/16 11:56:59;;;;;;;11.00;7.87;;;;;;;;;;5049130;28;20438;-87
2021/08/16 11:59:25;;;;;;;10.83;8.50;;;;;;;;;;5046694;28;20425;-86
2021/08/16 12:01:52;;;;;;;12.63;7.47;;;;;;;;;;5047603;28;20391;-86
2021/08/16 12:04:20;;;;;;;12.17;8.33;;;;;;;;;;5046675;28;20798;-85
2021/08/16 12:06:48;;;;;;;12.00;8.10;;;;;;;;;;5044369;28;20411;-84
2021/08/16 12:09:14;;;;;;;10.30;7.87;;;;;;;;;;5036446;28;20442;-84
2021/08/16 12:11:40;;;;;;;14.67;9.10;;;;;;;;;;5032469;28;20446;-85
2021/08/16 12:14:07;;;;;;;9.60;7.37;;;;;;;;;;5031368;28;20444;-87
2021/08/16 12:16:34;;;;;;;10.97;8.53;;;;;;;;;;5046669;28;20411;-85
2021/08/16 12:19:00;;;;;;;13.57;10.00;;;;;;;;;;5042167;28;20998;-86
2021/08/16 12:21:29;;;;;;;11.93;9.20;;;;;;;;;;5038306;28;20501;-86
2021/08/16 12:23:57;;;;;;;15.57;10.40;;;;;;;;;;5047713;28;20521;-84
2021/08/16 12:26:32;;;;;;;11.53;9.40;;;;;;;;;;5030752;28;20422;-84
2021/08/16 12:28:58;;;;;;;10.10;9.00;;;;;;;;;;5030963;28;20434;-86
2021/08/16 12:31:27;;;;;;;13.20;10.10;;;;;;;;;;5045469;28;20430;-84
2021/08/16 12:33:53;;;;;;;14.83;10.10;;;;;;;;;;5041053;28;20446;-84
2021/08/16 12:36:23;;;;;;;13.47;10.90;;;;;;;;;;5037261;28;20432;-83
2021/08/16 12:38:54;;;;;;;13.87;11.87;;;;;;;;;;5048342;28;20445;-84
2021/08/16 12:41:24;;;;;;;16.17;11.00;;;;;;;;;;5046190;28;20414;-83
2021/08/16 12:43:51;;;;;;;13.27;11.23;;;;;;;;;;5033689;28;20397;-85
2021/08/16 12:46:26;;;;;;;14.60;12.23;;;;;;;;;;5042255;28;20435;-85
2021/08/16 12:48:52;;;;;;;12.57;11.27;;;;;;;;;;5046708;28;20446;-85
2021/08/16 12:51:18;;;;;;;13.77;11.30;;;;;;;;;;5048022;28;20439;-84
2021/08/16 12:53:44;;;;;;;14.50;12.07;;;;;;;;;;5048161;28;20485;-85
2021/08/16 12:56:10;;;;;;;15.23;11.47;;;;;;;;;;5046129;28;20431;-85
2021/08/16 12:58:36;;;;;;;16.40;12.90;;;;;;;;;;5035678;28;20467;-86
2021/08/16 13:01:03;;;;;;;17.13;13.90;;;;;;;;;;5035808;28;20594;-85
2021/08/16 13:03:29;;;;;;;14.20;12.30;;;;;;;;;;5043349;28;20930;-84
2021/08/16 13:05:55;;;;;;;17.90;12.47;;;;;;;;;;5030073;28;20429;-85
2021/08/16 13:08:21;;;;;;;14.47;12.70;;;;;;;;;;5043228;28;20412;-86
2021/08/16 13:10:47;;;;;;;17.33;13.60;;;;;;;;;;5048701;28;20412;-87
2021/08/16 13:13:13;;;;;;;14.53;13.10;;;;;;;;;;5047925;28;20474;-85
2021/08/16 13:15:39;;;;;;;17.63;13.23;;;;;;;;;;5044610;28;20452;-86
2021/08/16 13:18:06;;;;;;;15.17;13.57;;;;;;;;;;5047979;28;20442;-86
2021/08/16 13:20:36;;;;;;;21.17;13.23;;;;;;;;;;5045135;28;20483;-86
2021/08/16 13:23:03;;;;;;;13.70;12.40;;;;;;;;;;5046724;28;20420;-87
2021/08/16 13:25:29;;;;;;;14.03;12.63;;;;;;;;;;5047388;28;20474;-85
2021/08/16 13:27:55;;;;;;;15.10;13.13;;;;;;;;;;5040788;28;20437;-85
2021/08/16 13:30:21;;;;;;;16.03;14.47;;;;;;;;;;5036120;28;20435;-85
2021/08/16 13:32:47;;;;;;;15.80;14.03;;;;;;;;;;5046943;28;20435;-86
2021/08/16 13:35:13;;;;;;;15.70;13.90;;;;;;;;;;5044745;28;20431;-87
2021/08/16 13:37:39;;;;;;;15.73;13.43;;;;;;;;;;5047666;28;20441;-86
2021/08/16 13:40:06;;;;;;;17.33;13.53;;;;;;;;;;5041875;28;20532;-86
2021/08/16 13:42:34;;;;;;;16.00;13.13;;;;;;;;;;5043311;28;20433;-87
2021/08/16 13:45:00;;;;;;;17.00;14.47;;;;;;;;;;5029996;28;20532;-86
2021/08/16 13:47:26;;;;;;;18.60;14.87;;;;;;;;;;5029677;28;20413;-87
2021/08/16 13:49:52;;;;;;;17.50;13.57;;;;;;;;;;5044096;28;20803;-86
2021/08/16 13:52:18;;;;;;;18.13;14.67;;;;;;;;;;5047777;28;20449;-86
2021/08/16 13:54:44;;;;;;;16.20;13.60;;;;;;;;;;5040735;28;20443;-86
2021/08/16 13:57:10;;;;;;;17.47;14.27;;;;;;;;;;5030865;28;20443;-86
2021/08/16 13:59:36;;;;;;;15.97;12.80;;;;;;;;;;5043976;28;20526;-86
2021/08/16 14:02:03;;;;;;;14.47;12.70;;;;;;;;;;5030080;28;20521;-85
2021/08/16 14:04:29;;;;;;;17.67;13.90;;;;;;;;;;5034850;28;20407;-86
2021/08/16 14:06:55;;;;;;;17.47;15.20;;;;;;;;;;5032244;28;20475;-86
2021/08/16 14:09:21;;;;;;;15.70;13.87;;;;;;;;;;5031820;28;20414;-85
2021/08/16 14:11:47;;;;;;;16.17;12.43;;;;;;;;;;5028494;28;24252;-85
2021/08/16 14:14:14;;;;;;;17.50;14.30;;;;;;;;;;5028051;28;20425;-85
2021/08/16 14:16:41;;;;;;;18.80;14.37;;;;;;;;;;5046943;28;20441;-84
2021/08/16 14:19:13;;;;;;;18.73;13.27;;;;;;;;;;5073179;28;20600;-83
2021/08/16 14:21:39;;;;;;;17.53;13.23;;;;;;;;;;5070661;28;20418;-83
2021/08/16 14:24:06;;;;;;;17.67;12.03;;;;;;;;;;5061232;28;20473;-86
2021/08/16 14:26:32;;;;;;;20.43;13.10;;;;;;;;;;5058290;28;20964;-84
2021/08/16 14:29:00;;;;;;;16.30;13.30;;;;;;;;;;5063967;28;20423;-84
2021/08/16 14:31:30;;;;;;;19.30;13.80;;;;;;;;;;5063409;28;20444;-83
2021/08/16 14:33:56;;;;;;;16.80;12.00;;;;;;;;;;5063535;28;20419;-84
2021/08/16 14:36:22;;;;;;;17.00;12.00;;;;;;;;;;5057649;28;20445;-83